sensor_id;sensor_type;location;lat;lon;timestamp;temperature;humidity
32614;DHT22;19031;51.400;6.770;2023-02-01T00:01:55;6.00;99.90
32614;DHT22;19031;51.400;6.770;2023-02-01T00:04:21;6.00;99.90
32614;DHT22;19031;51.400;6.770;2023-02-01T00:06:46;6.00;99.90
32614;DHT22;19031;51.400;6.770;2023-02-01T00:09:12;6.00;99.90
32614;DHT22;19031;51.400;6.770;2023-02-01T00:11:38;6.00;99.90
32614;DHT22;19031;51.400;6.770;2023-02-01T00:14:04;6.00;99.90
32614;DHT22;19031;51.400;6.770;2023-02-01T00:16:30;6.00;99.90
32614;DHT22;19031;51.400;6.770;2023-02-01T00:19:02;6.00;99.90
32614;DHT22;19031;51.400;6.770;2023-02-01T00:21:28;6.00;99.90
32614;DHT22;19031;51.400;6.770;2023-02-01T00:23:54;6.10;99.90
32614;DHT22;19031;51.400;6.770;2023-02-01T00:26:33;6.10;99.90
32614;DHT22;19031;51.400;6.770;2023-02-01T00:29:00;6.10;99.90
32614;DHT22;19031;51.400;6.770;2023-02-01T00:31:26;6.10;99.90
32614;DHT22;19031;51.400;6.770;2023-02-01T00:33:51;6.00;99.90
32614;DHT22;19031;51.400;6.770;2023-02-01T00:36:17;6.00;99.90
32614;DHT22;19031;51.400;6.770;2023-02-01T00:38:42;6.10;99.90
32614;DHT22;19031;51.400;6.770;2023-02-01T00:41:15;6.10;99.90
32614;DHT22;19031;51.400;6.770;2023-02-01T00:43:41;6.10;99.90
32614;DHT22;19031;51.400;6.770;2023-02-01T00:46:07;6.10;99.90
32614;DHT22;19031;51.400;6.770;2023-02-01T00:48:33;6.10;99.90
32614;DHT22;19031;51.400;6.770;2023-02-01T00:51:03;6.10;99.90
32614;DHT22;19031;51.400;6.770;2023-02-01T00:53:30;6.10;99.90
32614;DHT22;19031;51.400;6.770;2023-02-01T00:55:56;6.10;99.90
32614;DHT22;19031;51.400;6.770;2023-02-01T00:58:22;6.20;99.90
32614;DHT22;19031;51.400;6.770;2023-02-01T01:01:16;6.10;99.90
32614;DHT22;19031;51.400;6.770;2023-02-01T01:03:45;6.10;99.90
32614;DHT22;19031;51.400;6.770;2023-02-01T01:06:22;6.10;99.90
32614;DHT22;19031;51.400;6.770;2023-02-01T01:08:51;6.10;99.90
32614;DHT22;19031;51.400;6.770;2023-02-01T01:11:20;6.20;99.90
32614;DHT22;19031;51.400;6.770;2023-02-01T01:13:47;6.20;99.90
32614;DHT22;19031;51.400;6.770;2023-02-01T01:16:13;6.20;99.90
32614;DHT22;19031;51.400;6.770;2023-02-01T01:18:39;6.20;99.90
32614;DHT22;19031;51.400;6.770;2023-02-01T01:21:07;6.20;99.90
32614;DHT22;19031;51.400;6.770;2023-02-01T01:23:32;6.30;99.90
32614;DHT22;19031;51.400;6.770;2023-02-01T01:25:58;6.20;99.90
32614;DHT22;19031;51.400;6.770;2023-02-01T01:28:24;6.20;99.90
32614;DHT22;19031;51.400;6.770;2023-02-01T01:30:50;6.20;99.90
32614;DHT22;19031;51.400;6.770;2023-02-01T01:33:15;6.20;99.90
32614;DHT22;19031;51.400;6.770;2023-02-01T01:35:41;6.30;99.90
32614;DHT22;19031;51.400;6.770;2023-02-01T01:38:09;6.30;99.90
32614;DHT22;19031;51.400;6.770;2023-02-01T01:40:35;6.20;99.90
32614;DHT22;19031;51.400;6.770;2023-02-01T01:43:01;6.20;99.90
32614;DHT22;19031;51.400;6.770;2023-02-01T01:45:29;6.10;99.90
32614;DHT22;19031;51.400;6.770;2023-02-01T01:48:16;6.10;99.90
32614;DHT22;19031;51.400;6.770;2023-02-01T01:50:48;6.10;99.90
32614;DHT22;19031;51.400;6.770;2023-02-01T01:53:20;6.10;99.90
32614;DHT22;19031;51.400;6.770;2023-02-01T01:55:47;6.10;99.90
32614;DHT22;19031;51.400;6.770;2023-02-01T01:58:18;6.10;99.90
32614;DHT22;19031;51.400;6.770;2023-02-01T02:00:45;6.00;99.90
32614;DHT22;19031;51.400;6.770;2023-02-01T02:03:32;6.10;99.90
32614;DHT22;19031;51.400;6.770;2023-02-01T02:06:00;6.00;99.90
32614;DHT22;19031;51.400;6.770;2023-02-01T02:08:27;6.00;99.90
32614;DHT22;19031;51.400;6.770;2023-02-01T02:10:53;5.90;99.90
32614;DHT22;19031;51.400;6.770;2023-02-01T02:16:19;5.90;99.90
32614;DHT22;19031;51.400;6.770;2023-02-01T02:19:07;5.80;99.90
32614;DHT22;19031;51.400;6.770;2023-02-01T02:28:09;5.70;99.90
32614;DHT22;19031;51.400;6.770;2023-02-01T02:36:30;5.60;99.90
32614;DHT22;19031;51.400;6.770;2023-02-01T02:39:07;5.60;99.90
32614;DHT22;19031;51.400;6.770;2023-02-01T02:44:37;5.50;99.90
32614;DHT22;19031;51.400;6.770;2023-02-01T02:47:33;5.40;99.90
32614;DHT22;19031;51.400;6.770;2023-02-01T02:53:33;5.30;99.90
32614;DHT22;19031;51.400;6.770;2023-02-01T02:56:21;5.20;99.90
32614;DHT22;19031;51.400;6.770;2023-02-01T02:59:09;5.20;99.90
32614;DHT22;19031;51.400;6.770;2023-02-01T03:01:54;5.20;99.90
32614;DHT22;19031;51.400;6.770;2023-02-01T03:04:38;5.30;99.90
32614;DHT22;19031;51.400;6.770;2023-02-01T03:10:18;5.30;99.90
32614;DHT22;19031;51.400;6.770;2023-02-01T03:12:50;5.30;99.90
32614;DHT22;19031;51.400;6.770;2023-02-01T03:15:39;5.30;99.90
32614;DHT22;19031;51.400;6.770;2023-02-01T03:18:12;5.40;99.90
32614;DHT22;19031;51.400;6.770;2023-02-01T03:20:40;5.30;99.90
32614;DHT22;19031;51.400;6.770;2023-02-01T03:23:08;5.30;99.90
32614;DHT22;19031;51.400;6.770;2023-02-01T03:25:35;5.40;99.90
32614;DHT22;19031;51.400;6.770;2023-02-01T03:28:07;5.50;99.90
32614;DHT22;19031;51.400;6.770;2023-02-01T03:30:42;5.50;99.90
32614;DHT22;19031;51.400;6.770;2023-02-01T03:33:19;5.60;99.90
32614;DHT22;19031;51.400;6.770;2023-02-01T03:36:20;5.50;99.90
32614;DHT22;19031;51.400;6.770;2023-02-01T03:39:02;5.70;99.90
32614;DHT22;19031;51.400;6.770;2023-02-01T03:41:51;5.70;99.90
32614;DHT22;19031;51.400;6.770;2023-02-01T03:44:40;5.70;99.90
32614;DHT22;19031;51.400;6.770;2023-02-01T03:49:37;5.70;99.90
32614;DHT22;19031;51.400;6.770;2023-02-01T03:52:06;5.70;99.90
32614;DHT22;19031;51.400;6.770;2023-02-01T03:54:33;5.70;99.90
32614;DHT22;19031;51.400;6.770;2023-02-01T03:57:04;5.60;99.90
32614;DHT22;19031;51.400;6.770;2023-02-01T03:59:30;5.70;99.90
32614;DHT22;19031;51.400;6.770;2023-02-01T04:01:55;5.70;99.90
32614;DHT22;19031;51.400;6.770;2023-02-01T04:04:21;5.70;99.90
32614;DHT22;19031;51.400;6.770;2023-02-01T04:06:50;5.70;99.90
32614;DHT22;19031;51.400;6.770;2023-02-01T04:09:16;5.70;99.90
32614;DHT22;19031;51.400;6.770;2023-02-01T04:11:42;5.60;99.90
32614;DHT22;19031;51.400;6.770;2023-02-01T04:14:08;5.60;99.90
32614;DHT22;19031;51.400;6.770;2023-02-01T04:16:34;5.60;99.90
32614;DHT22;19031;51.400;6.770;2023-02-01T04:19:00;5.60;99.90
32614;DHT22;19031;51.400;6.770;2023-02-01T04:21:26;5.50;99.90
32614;DHT22;19031;51.400;6.770;2023-02-01T04:23:52;5.50;99.90
32614;DHT22;19031;51.400;6.770;2023-02-01T04:26:18;5.50;99.90
32614;DHT22;19031;51.400;6.770;2023-02-01T04:28:45;5.50;99.90
32614;DHT22;19031;51.400;6.770;2023-02-01T04:31:13;5.40;99.90
32614;DHT22;19031;51.400;6.770;2023-02-01T04:33:39;5.50;99.90
32614;DHT22;19031;51.400;6.770;2023-02-01T04:36:05;5.40;99.90
32614;DHT22;19031;51.400;6.770;2023-02-01T04:38:30;5.40;99.90
32614;DHT22;19031;51.400;6.770;2023-02-01T04:40:58;5.40;99.90
32614;DHT22;19031;51.400;6.770;2023-02-01T04:43:24;5.40;99.90
32614;DHT22;19031;51.400;6.770;2023-02-01T04:45:50;5.40;99.90
32614;DHT22;19031;51.400;6.770;2023-02-01T04:48:17;5.40;99.90
32614;DHT22;19031;51.400;6.770;2023-02-01T04:50:45;5.40;99.90
32614;DHT22;19031;51.400;6.770;2023-02-01T04:53:16;5.40;99.90
32614;DHT22;19031;51.400;6.770;2023-02-01T04:55:43;5.40;99.90
32614;DHT22;19031;51.400;6.770;2023-02-01T04:58:09;5.50;99.90
32614;DHT22;19031;51.400;6.770;2023-02-01T05:00:34;5.50;99.90
32614;DHT22;19031;51.400;6.770;2023-02-01T05:03:00;5.40;99.90
32614;DHT22;19031;51.400;6.770;2023-02-01T05:05:27;5.30;99.90
32614;DHT22;19031;51.400;6.770;2023-02-01T05:07:52;5.40;99.90
32614;DHT22;19031;51.400;6.770;2023-02-01T05:10:18;5.40;99.90
32614;DHT22;19031;51.400;6.770;2023-02-01T05:12:44;5.40;99.90
32614;DHT22;19031;51.400;6.770;2023-02-01T05:15:29;5.40;99.90
32614;DHT22;19031;51.400;6.770;2023-02-01T05:17:55;5.30;99.90
32614;DHT22;19031;51.400;6.770;2023-02-01T05:20:21;5.30;99.90
32614;DHT22;19031;51.400;6.770;2023-02-01T05:22:46;5.30;99.90
32614;DHT22;19031;51.400;6.770;2023-02-01T05:25:12;5.30;99.90
32614;DHT22;19031;51.400;6.770;2023-02-01T05:27:37;5.30;99.90
32614;DHT22;19031;51.400;6.770;2023-02-01T05:30:07;5.30;99.90
32614;DHT22;19031;51.400;6.770;2023-02-01T05:32:33;5.20;99.90
32614;DHT22;19031;51.400;6.770;2023-02-01T05:34:59;5.20;99.90
32614;DHT22;19031;51.400;6.770;2023-02-01T05:37:25;5.20;99.90
32614;DHT22;19031;51.400;6.770;2023-02-01T05:39:50;5.10;99.90
32614;DHT22;19031;51.400;6.770;2023-02-01T05:42:16;5.10;99.90
32614;DHT22;19031;51.400;6.770;2023-02-01T05:44:42;5.10;99.90
32614;DHT22;19031;51.400;6.770;2023-02-01T05:47:07;5.10;99.90
32614;DHT22;19031;51.400;6.770;2023-02-01T05:49:33;5.20;99.90
32614;DHT22;19031;51.400;6.770;2023-02-01T05:51:59;5.10;99.90
32614;DHT22;19031;51.400;6.770;2023-02-01T05:54:27;5.10;99.90
32614;DHT22;19031;51.400;6.770;2023-02-01T05:56:53;5.20;99.90
32614;DHT22;19031;51.400;6.770;2023-02-01T05:59:18;5.00;99.90
32614;DHT22;19031;51.400;6.770;2023-02-01T06:01:44;5.00;99.90
32614;DHT22;19031;51.400;6.770;2023-02-01T06:04:09;5.00;99.90
32614;DHT22;19031;51.400;6.770;2023-02-01T06:06:35;4.90;99.90
32614;DHT22;19031;51.400;6.770;2023-02-01T06:09:02;5.00;99.90
32614;DHT22;19031;51.400;6.770;2023-02-01T06:11:28;5.00;99.90
32614;DHT22;19031;51.400;6.770;2023-02-01T06:13:54;5.00;99.90
32614;DHT22;19031;51.400;6.770;2023-02-01T06:16:21;5.10;99.90
32614;DHT22;19031;51.400;6.770;2023-02-01T06:18:46;5.20;99.90
32614;DHT22;19031;51.400;6.770;2023-02-01T06:21:12;5.20;99.90
32614;DHT22;19031;51.400;6.770;2023-02-01T06:23:39;5.30;99.90
32614;DHT22;19031;51.400;6.770;2023-02-01T06:26:06;5.30;99.90
32614;DHT22;19031;51.400;6.770;2023-02-01T06:28:35;5.40;99.90
32614;DHT22;19031;51.400;6.770;2023-02-01T06:31:06;5.40;99.90
32614;DHT22;19031;51.400;6.770;2023-02-01T06:33:36;5.40;99.90
32614;DHT22;19031;51.400;6.770;2023-02-01T06:36:04;5.50;99.90
32614;DHT22;19031;51.400;6.770;2023-02-01T06:38:30;5.50;99.90
32614;DHT22;19031;51.400;6.770;2023-02-01T06:40:57;5.50;99.90
32614;DHT22;19031;51.400;6.770;2023-02-01T06:43:24;5.60;99.90
32614;DHT22;19031;51.400;6.770;2023-02-01T06:45:51;5.60;99.90
32614;DHT22;19031;51.400;6.770;2023-02-01T06:48:17;5.70;99.90
32614;DHT22;19031;51.400;6.770;2023-02-01T06:50:42;5.70;99.90
32614;DHT22;19031;51.400;6.770;2023-02-01T06:53:08;5.80;99.90
32614;DHT22;19031;51.400;6.770;2023-02-01T06:55:34;5.80;99.90
32614;DHT22;19031;51.400;6.770;2023-02-01T06:58:00;5.70;99.90
32614;DHT22;19031;51.400;6.770;2023-02-01T07:00:27;5.80;99.90
32614;DHT22;19031;51.400;6.770;2023-02-01T07:02:53;5.90;99.90
32614;DHT22;19031;51.400;6.770;2023-02-01T07:05:19;5.80;99.90
32614;DHT22;19031;51.400;6.770;2023-02-01T07:07:44;5.90;99.90
32614;DHT22;19031;51.400;6.770;2023-02-01T07:10:10;5.90;99.90
32614;DHT22;19031;51.400;6.770;2023-02-01T07:12:36;5.90;99.90
32614;DHT22;19031;51.400;6.770;2023-02-01T07:15:02;5.90;99.90
32614;DHT22;19031;51.400;6.770;2023-02-01T07:17:28;5.90;99.90
32614;DHT22;19031;51.400;6.770;2023-02-01T07:19:57;6.00;99.90
32614;DHT22;19031;51.400;6.770;2023-02-01T07:22:25;6.00;99.90
32614;DHT22;19031;51.400;6.770;2023-02-01T07:24:51;5.90;99.90
32614;DHT22;19031;51.400;6.770;2023-02-01T07:27:16;6.00;99.90
32614;DHT22;19031;51.400;6.770;2023-02-01T07:29:42;6.00;99.90
32614;DHT22;19031;51.400;6.770;2023-02-01T07:32:08;6.00;99.90
32614;DHT22;19031;51.400;6.770;2023-02-01T07:34:33;6.00;99.90
32614;DHT22;19031;51.400;6.770;2023-02-01T07:37:00;6.00;99.90
32614;DHT22;19031;51.400;6.770;2023-02-01T07:39:25;6.00;99.90
32614;DHT22;19031;51.400;6.770;2023-02-01T07:41:53;6.00;99.90
32614;DHT22;19031;51.400;6.770;2023-02-01T07:44:19;6.10;99.90
32614;DHT22;19031;51.400;6.770;2023-02-01T07:46:48;6.10;99.90
32614;DHT22;19031;51.400;6.770;2023-02-01T07:49:13;6.20;99.90
32614;DHT22;19031;51.400;6.770;2023-02-01T07:51:39;6.30;99.90
32614;DHT22;19031;51.400;6.770;2023-02-01T07:54:05;6.20;99.90
32614;DHT22;19031;51.400;6.770;2023-02-01T07:56:30;6.20;99.90
32614;DHT22;19031;51.400;6.770;2023-02-01T07:58:56;6.30;99.90
32614;DHT22;19031;51.400;6.770;2023-02-01T08:01:26;6.20;99.90
32614;DHT22;19031;51.400;6.770;2023-02-01T08:03:57;6.30;99.90
32614;DHT22;19031;51.400;6.770;2023-02-01T08:06:24;6.30;99.90
32614;DHT22;19031;51.400;6.770;2023-02-01T08:08:51;6.20;99.90
32614;DHT22;19031;51.400;6.770;2023-02-01T08:11:19;6.30;99.90
32614;DHT22;19031;51.400;6.770;2023-02-01T08:13:45;6.30;99.90
32614;DHT22;19031;51.400;6.770;2023-02-01T08:16:12;6.20;99.90
32614;DHT22;19031;51.400;6.770;2023-02-01T08:18:38;6.30;99.90
32614;DHT22;19031;51.400;6.770;2023-02-01T08:21:12;6.30;99.90
32614;DHT22;19031;51.400;6.770;2023-02-01T08:23:39;6.30;99.90
32614;DHT22;19031;51.400;6.770;2023-02-01T08:26:22;6.30;99.90
32614;DHT22;19031;51.400;6.770;2023-02-01T08:28:54;6.30;99.90
32614;DHT22;19031;51.400;6.770;2023-02-01T08:31:22;6.40;99.90
32614;DHT22;19031;51.400;6.770;2023-02-01T08:33:50;6.40;99.90
32614;DHT22;19031;51.400;6.770;2023-02-01T08:36:16;6.30;99.90
32614;DHT22;19031;51.400;6.770;2023-02-01T08:38:42;6.30;99.90
32614;DHT22;19031;51.400;6.770;2023-02-01T08:41:10;6.40;99.90
32614;DHT22;19031;51.400;6.770;2023-02-01T08:43:36;6.40;99.90
32614;DHT22;19031;51.400;6.770;2023-02-01T08:46:03;6.50;99.90
32614;DHT22;19031;51.400;6.770;2023-02-01T08:48:31;6.30;99.90
32614;DHT22;19031;51.400;6.770;2023-02-01T08:50:56;6.40;99.90
32614;DHT22;19031;51.400;6.770;2023-02-01T08:53:22;6.40;99.90
32614;DHT22;19031;51.400;6.770;2023-02-01T08:55:48;6.40;99.90
32614;DHT22;19031;51.400;6.770;2023-02-01T08:58:14;6.40;99.90
32614;DHT22;19031;51.400;6.770;2023-02-01T09:00:43;6.50;99.90
32614;DHT22;19031;51.400;6.770;2023-02-01T09:03:11;6.50;99.90
32614;DHT22;19031;51.400;6.770;2023-02-01T09:05:38;6.40;99.90
32614;DHT22;19031;51.400;6.770;2023-02-01T09:08:03;6.50;99.90
32614;DHT22;19031;51.400;6.770;2023-02-01T09:10:30;6.50;99.90
32614;DHT22;19031;51.400;6.770;2023-02-01T09:12:55;6.50;99.90
32614;DHT22;19031;51.400;6.770;2023-02-01T09:15:21;6.50;99.90
32614;DHT22;19031;51.400;6.770;2023-02-01T09:17:47;6.50;99.90
32614;DHT22;19031;51.400;6.770;2023-02-01T09:20:12;6.50;99.90
32614;DHT22;19031;51.400;6.770;2023-02-01T09:22:38;6.50;99.90
32614;DHT22;19031;51.400;6.770;2023-02-01T09:25:04;6.50;99.90
32614;DHT22;19031;51.400;6.770;2023-02-01T09:27:30;6.50;99.90
32614;DHT22;19031;51.400;6.770;2023-02-01T09:29:56;6.50;99.90
32614;DHT22;19031;51.400;6.770;2023-02-01T09:32:22;6.50;99.90
32614;DHT22;19031;51.400;6.770;2023-02-01T09:34:52;6.60;99.90
32614;DHT22;19031;51.400;6.770;2023-02-01T09:37:18;6.60;99.90
32614;DHT22;19031;51.400;6.770;2023-02-01T09:39:44;6.60;99.90
32614;DHT22;19031;51.400;6.770;2023-02-01T09:47:51;6.70;99.90
32614;DHT22;19031;51.400;6.770;2023-02-01T09:50:31;6.70;99.90
32614;DHT22;19031;51.400;6.770;2023-02-01T09:55:53;6.80;99.90
32614;DHT22;19031;51.400;6.770;2023-02-01T10:01:20;6.90;99.90
32614;DHT22;19031;51.400;6.770;2023-02-01T10:03:47;6.90;99.90
32614;DHT22;19031;51.400;6.770;2023-02-01T10:06:30;6.90;99.90
32614;DHT22;19031;51.400;6.770;2023-02-01T10:14:44;7.10;99.90
32614;DHT22;19031;51.400;6.770;2023-02-01T10:17:47;7.10;99.90
32614;DHT22;19031;51.400;6.770;2023-02-01T10:25:26;7.40;99.90
32614;DHT22;19031;51.400;6.770;2023-02-01T10:27:52;7.50;99.90
32614;DHT22;19031;51.400;6.770;2023-02-01T10:32:44;7.70;99.90
32614;DHT22;19031;51.400;6.770;2023-02-01T10:35:17;7.50;99.90
32614;DHT22;19031;51.400;6.770;2023-02-01T10:37:43;7.50;99.90
32614;DHT22;19031;51.400;6.770;2023-02-01T10:40:17;7.40;99.90
32614;DHT22;19031;51.400;6.770;2023-02-01T10:42:47;7.40;99.90
32614;DHT22;19031;51.400;6.770;2023-02-01T10:45:17;7.40;99.90
32614;DHT22;19031;51.400;6.770;2023-02-01T10:47:44;7.30;99.90
32614;DHT22;19031;51.400;6.770;2023-02-01T10:50:13;7.30;99.90
32614;DHT22;19031;51.400;6.770;2023-02-01T10:52:51;7.40;99.90
32614;DHT22;19031;51.400;6.770;2023-02-01T10:58:04;7.30;99.90
32614;DHT22;19031;51.400;6.770;2023-02-01T11:00:57;7.40;99.90
32614;DHT22;19031;51.400;6.770;2023-02-01T11:06:24;7.30;99.90
32614;DHT22;19031;51.400;6.770;2023-02-01T11:08:52;7.40;99.90
32614;DHT22;19031;51.400;6.770;2023-02-01T11:11:19;7.50;99.90
32614;DHT22;19031;51.400;6.770;2023-02-01T11:14:01;7.70;99.90
32614;DHT22;19031;51.400;6.770;2023-02-01T11:16:35;7.90;99.90
32614;DHT22;19031;51.400;6.770;2023-02-01T11:19:02;8.00;99.90
32614;DHT22;19031;51.400;6.770;2023-02-01T11:21:28;8.00;99.90
32614;DHT22;19031;51.400;6.770;2023-02-01T11:23:54;8.00;99.90
32614;DHT22;19031;51.400;6.770;2023-02-01T11:26:25;8.00;99.90
32614;DHT22;19031;51.400;6.770;2023-02-01T11:28:59;7.80;99.90
32614;DHT22;19031;51.400;6.770;2023-02-01T11:31:27;7.80;99.90
32614;DHT22;19031;51.400;6.770;2023-02-01T11:34:04;7.70;99.90
32614;DHT22;19031;51.400;6.770;2023-02-01T11:36:32;7.70;99.90
32614;DHT22;19031;51.400;6.770;2023-02-01T11:39:24;7.70;99.90
32614;DHT22;19031;51.400;6.770;2023-02-01T11:42:13;7.60;99.90
32614;DHT22;19031;51.400;6.770;2023-02-01T11:44:42;7.60;99.90
32614;DHT22;19031;51.400;6.770;2023-02-01T11:49:54;7.70;99.90
32614;DHT22;19031;51.400;6.770;2023-02-01T12:03:57;7.30;99.90
32614;DHT22;19031;51.400;6.770;2023-02-01T12:06:52;7.40;99.90
32614;DHT22;19031;51.400;6.770;2023-02-01T12:11:54;7.40;99.90
32614;DHT22;19031;51.400;6.770;2023-02-01T12:20:39;7.40;99.90
32614;DHT22;19031;51.400;6.770;2023-02-01T12:23:23;7.40;99.90
32614;DHT22;19031;51.400;6.770;2023-02-01T12:28:53;7.50;99.90
32614;DHT22;19031;51.400;6.770;2023-02-01T12:31:41;7.50;99.90
32614;DHT22;19031;51.400;6.770;2023-02-01T12:42:39;7.60;99.90
32614;DHT22;19031;51.400;6.770;2023-02-01T12:45:30;7.60;99.90
32614;DHT22;19031;51.400;6.770;2023-02-01T12:48:19;7.60;99.90
32614;DHT22;19031;51.400;6.770;2023-02-01T12:50:56;7.70;99.90
32614;DHT22;19031;51.400;6.770;2023-02-01T12:53:27;7.60;99.90
32614;DHT22;19031;51.400;6.770;2023-02-01T12:56:01;7.60;99.90
32614;DHT22;19031;51.400;6.770;2023-02-01T12:58:50;7.80;99.90
32614;DHT22;19031;51.400;6.770;2023-02-01T13:01:32;7.70;99.90
32614;DHT22;19031;51.400;6.770;2023-02-01T13:04:25;7.70;99.90
32614;DHT22;19031;51.400;6.770;2023-02-01T13:06:57;7.70;99.90
32614;DHT22;19031;51.400;6.770;2023-02-01T13:11:50;7.80;99.90
32614;DHT22;19031;51.400;6.770;2023-02-01T13:14:37;7.70;99.90
32614;DHT22;19031;51.400;6.770;2023-02-01T13:17:19;7.80;99.90
32614;DHT22;19031;51.400;6.770;2023-02-01T13:19:53;7.80;99.90
32614;DHT22;19031;51.400;6.770;2023-02-01T13:22:43;7.80;99.90
32614;DHT22;19031;51.400;6.770;2023-02-01T13:25:35;7.80;99.90
32614;DHT22;19031;51.400;6.770;2023-02-01T13:39:27;7.70;99.90
32614;DHT22;19031;51.400;6.770;2023-02-01T13:41:59;7.70;99.90
32614;DHT22;19031;51.400;6.770;2023-02-01T13:44:34;7.80;99.90
32614;DHT22;19031;51.400;6.770;2023-02-01T13:47:09;7.80;99.90
32614;DHT22;19031;51.400;6.770;2023-02-01T13:49:39;7.80;99.90
32614;DHT22;19031;51.400;6.770;2023-02-01T13:52:06;7.90;99.90
32614;DHT22;19031;51.400;6.770;2023-02-01T13:54:43;7.90;99.90
32614;DHT22;19031;51.400;6.770;2023-02-01T13:57:37;7.90;99.90
32614;DHT22;19031;51.400;6.770;2023-02-01T14:00:39;7.90;99.90
32614;DHT22;19031;51.400;6.770;2023-02-01T14:05:54;8.10;99.90
32614;DHT22;19031;51.400;6.770;2023-02-01T14:08:38;8.20;99.90
32614;DHT22;19031;51.400;6.770;2023-02-01T14:11:04;8.20;99.90
32614;DHT22;19031;51.400;6.770;2023-02-01T14:13:40;8.20;99.90
32614;DHT22;19031;51.400;6.770;2023-02-01T14:21:32;8.30;99.90
32614;DHT22;19031;51.400;6.770;2023-02-01T14:26:53;8.40;99.90
32614;DHT22;19031;51.400;6.770;2023-02-01T14:29:26;8.30;99.90
32614;DHT22;19031;51.400;6.770;2023-02-01T14:32:18;8.30;99.90
32614;DHT22;19031;51.400;6.770;2023-02-01T14:47:54;8.40;99.90
32614;DHT22;19031;51.400;6.770;2023-02-01T14:59:00;8.30;97.90
32614;DHT22;19031;51.400;6.770;2023-02-01T15:01:31;8.30;97.50
32614;DHT22;19031;51.400;6.770;2023-02-01T15:04:10;8.30;97.40
32614;DHT22;19031;51.400;6.770;2023-02-01T15:09:16;8.20;97.20
32614;DHT22;19031;51.400;6.770;2023-02-01T15:14:42;8.30;98.00
32614;DHT22;19031;51.400;6.770;2023-02-01T15:17:30;8.30;96.60
32614;DHT22;19031;51.400;6.770;2023-02-01T15:20:25;8.30;97.70
32614;DHT22;19031;51.400;6.770;2023-02-01T15:23:05;8.20;97.90
32614;DHT22;19031;51.400;6.770;2023-02-01T15:25:38;8.30;98.00
32614;DHT22;19031;51.400;6.770;2023-02-01T15:28:05;8.30;97.00
32614;DHT22;19031;51.400;6.770;2023-02-01T15:30:33;8.20;96.90
32614;DHT22;19031;51.400;6.770;2023-02-01T15:33:16;8.20;97.00
32614;DHT22;19031;51.400;6.770;2023-02-01T15:35:47;8.30;97.40
32614;DHT22;19031;51.400;6.770;2023-02-01T15:38:19;8.20;97.30
32614;DHT22;19031;51.400;6.770;2023-02-01T15:40:57;8.30;96.80
32614;DHT22;19031;51.400;6.770;2023-02-01T15:43:25;8.20;97.30
32614;DHT22;19031;51.400;6.770;2023-02-01T15:45:51;8.20;97.40
32614;DHT22;19031;51.400;6.770;2023-02-01T15:48:22;8.20;97.30
32614;DHT22;19031;51.400;6.770;2023-02-01T15:50:48;8.20;97.40
32614;DHT22;19031;51.400;6.770;2023-02-01T15:53:19;8.20;97.90
32614;DHT22;19031;51.400;6.770;2023-02-01T15:55:46;8.20;98.30
32614;DHT22;19031;51.400;6.770;2023-02-01T15:58:23;8.10;98.30
32614;DHT22;19031;51.400;6.770;2023-02-01T16:00:51;8.20;98.60
32614;DHT22;19031;51.400;6.770;2023-02-01T16:03:33;8.10;98.30
32614;DHT22;19031;51.400;6.770;2023-02-01T16:06:05;8.10;98.70
32614;DHT22;19031;51.400;6.770;2023-02-01T16:08:32;8.10;99.10
32614;DHT22;19031;51.400;6.770;2023-02-01T16:13:48;8.10;99.00
32614;DHT22;19031;51.400;6.770;2023-02-01T16:16:14;8.10;99.90
32614;DHT22;19031;51.400;6.770;2023-02-01T16:18:40;8.10;99.40
32614;DHT22;19031;51.400;6.770;2023-02-01T16:21:06;8.10;99.90
32614;DHT22;19031;51.400;6.770;2023-02-01T16:23:36;8.10;99.90
32614;DHT22;19031;51.400;6.770;2023-02-01T16:26:02;8.10;99.90
32614;DHT22;19031;51.400;6.770;2023-02-01T16:28:28;8.00;99.90
32614;DHT22;19031;51.400;6.770;2023-02-01T16:30:53;8.00;99.90
32614;DHT22;19031;51.400;6.770;2023-02-01T16:33:20;8.00;99.90
32614;DHT22;19031;51.400;6.770;2023-02-01T16:35:47;8.10;99.90
32614;DHT22;19031;51.400;6.770;2023-02-01T16:38:16;8.00;99.90
32614;DHT22;19031;51.400;6.770;2023-02-01T16:40:45;8.00;99.90
32614;DHT22;19031;51.400;6.770;2023-02-01T16:43:16;8.00;99.90
32614;DHT22;19031;51.400;6.770;2023-02-01T16:45:43;8.10;99.90
32614;DHT22;19031;51.400;6.770;2023-02-01T16:48:36;8.10;99.90
32614;DHT22;19031;51.400;6.770;2023-02-01T16:51:07;8.00;99.90
32614;DHT22;19031;51.400;6.770;2023-02-01T16:53:34;8.00;99.90
32614;DHT22;19031;51.400;6.770;2023-02-01T16:55:59;8.10;99.90
32614;DHT22;19031;51.400;6.770;2023-02-01T16:58:26;8.10;99.90
32614;DHT22;19031;51.400;6.770;2023-02-01T17:00:53;8.00;99.90
32614;DHT22;19031;51.400;6.770;2023-02-01T17:03:19;8.00;99.90
32614;DHT22;19031;51.400;6.770;2023-02-01T17:05:48;7.90;99.90
32614;DHT22;19031;51.400;6.770;2023-02-01T17:08:21;8.00;99.90
32614;DHT22;19031;51.400;6.770;2023-02-01T17:10:48;7.90;99.90
32614;DHT22;19031;51.400;6.770;2023-02-01T17:13:15;8.00;99.90
32614;DHT22;19031;51.400;6.770;2023-02-01T17:16:00;7.90;99.90
32614;DHT22;19031;51.400;6.770;2023-02-01T17:18:31;7.90;99.90
32614;DHT22;19031;51.400;6.770;2023-02-01T17:20:59;8.00;99.90
32614;DHT22;19031;51.400;6.770;2023-02-01T17:23:27;8.00;99.90
32614;DHT22;19031;51.400;6.770;2023-02-01T17:25:53;7.90;99.90
32614;DHT22;19031;51.400;6.770;2023-02-01T17:28:19;8.00;99.90
32614;DHT22;19031;51.400;6.770;2023-02-01T17:30:45;7.90;99.90
32614;DHT22;19031;51.400;6.770;2023-02-01T17:33:23;7.90;99.90
32614;DHT22;19031;51.400;6.770;2023-02-01T17:35:50;7.90;99.90
32614;DHT22;19031;51.400;6.770;2023-02-01T17:38:16;7.90;99.90
32614;DHT22;19031;51.400;6.770;2023-02-01T17:40:42;8.00;99.90
32614;DHT22;19031;51.400;6.770;2023-02-01T17:43:16;8.00;99.90
32614;DHT22;19031;51.400;6.770;2023-02-01T17:45:48;7.90;99.90
32614;DHT22;19031;51.400;6.770;2023-02-01T17:48:18;7.90;99.90
32614;DHT22;19031;51.400;6.770;2023-02-01T17:50:45;7.90;99.90
32614;DHT22;19031;51.400;6.770;2023-02-01T17:53:12;8.00;99.90
32614;DHT22;19031;51.400;6.770;2023-02-01T17:55:42;8.00;99.90
32614;DHT22;19031;51.400;6.770;2023-02-01T17:58:13;7.90;99.90
32614;DHT22;19031;51.400;6.770;2023-02-01T18:00:40;7.80;99.90
32614;DHT22;19031;51.400;6.770;2023-02-01T18:03:09;7.80;99.90
32614;DHT22;19031;51.400;6.770;2023-02-01T18:05:43;7.80;99.90
32614;DHT22;19031;51.400;6.770;2023-02-01T18:08:18;7.70;99.90
32614;DHT22;19031;51.400;6.770;2023-02-01T18:10:48;7.80;99.90
32614;DHT22;19031;51.400;6.770;2023-02-01T18:13:14;7.80;99.90
32614;DHT22;19031;51.400;6.770;2023-02-01T18:15:39;7.80;99.90
32614;DHT22;19031;51.400;6.770;2023-02-01T18:18:05;7.80;99.90
32614;DHT22;19031;51.400;6.770;2023-02-01T18:20:31;7.80;99.90
32614;DHT22;19031;51.400;6.770;2023-02-01T18:22:57;7.80;99.90
32614;DHT22;19031;51.400;6.770;2023-02-01T18:25:28;7.80;99.90
32614;DHT22;19031;51.400;6.770;2023-02-01T18:27:56;7.80;99.90
32614;DHT22;19031;51.400;6.770;2023-02-01T18:30:32;7.80;99.90
32614;DHT22;19031;51.400;6.770;2023-02-01T18:32:58;7.90;99.90